createdAt,value
2022-09-10T00:00:24.816Z,5.2
2022-09-10T00:02:24.279Z,3.8
2022-09-10T00:04:23.543Z,3.7
2022-09-10T00:06:30.132Z,4.5
2022-09-10T00:08:23.373Z,4.6
2022-09-10T00:10:22.281Z,4.8
2022-09-10T00:12:27.584Z,4.7
2022-09-10T00:14:20.442Z,4.5
2022-09-10T00:16:25.244Z,4.4
2022-09-10T00:18:26.563Z,2.8
2022-09-10T00:20:31.721Z,3.5
2022-09-10T00:22:26.616Z,3.7
2022-09-10T00:24:27.468Z,6.3
2022-09-10T00:26:27.273Z,5.5
2022-09-10T00:28:25.236Z,4.1
2022-09-10T00:30:25.021Z,4.9
2022-09-10T00:32:21.840Z,4.6
2022-09-10T00:34:25.931Z,6.2
2022-09-10T00:36:30.440Z,3.9
2022-09-10T00:38:26.048Z,2.1
2022-09-10T00:40:25.576Z,4.2
2022-09-10T00:42:28.197Z,4.5
2022-09-10T00:44:24.408Z,4.6
2022-09-10T00:46:25.365Z,3.7
2022-09-10T00:48:25.190Z,6.7
2022-09-10T00:50:27.466Z,3.3
2022-09-10T00:52:29.079Z,4.9
2022-09-10T00:54:23.887Z,2.8
2022-09-10T00:56:27.320Z,3.6
2022-09-10T00:58:23.120Z,2.9
2022-09-10T01:00:28.376Z,3.2
2022-09-10T01:02:25.522Z,4.3
2022-09-10T01:04:23.416Z,2.7
2022-09-10T01:06:24.779Z,4.7
2022-09-10T01:08:20.389Z,3.1
2022-09-10T01:10:29.218Z,5.1
2022-09-10T01:12:23.813Z,2.9
2022-09-10T01:16:24.407Z,4.3
2022-09-10T01:18:22.616Z,3.9
2022-09-10T01:20:25.800Z,3.5
2022-09-10T01:22:25.731Z,4.5
2022-09-10T01:24:23.776Z,5.7
2022-09-10T01:26:29.850Z,2.4
2022-09-10T01:28:29.118Z,3.5
2022-09-10T01:30:24.341Z,4.2
2022-09-10T01:32:31.194Z,3.5
2022-09-10T01:34:27.148Z,3.9
2022-09-10T01:40:21.121Z,3.7
2022-09-10T01:42:24.892Z,4
2022-09-10T01:44:23.142Z,6.1
2022-09-10T01:46:29.009Z,3.8
2022-09-10T01:48:28.743Z,3.6
2022-09-10T01:50:22.217Z,4.4
2022-09-10T01:52:24.845Z,3
2022-09-10T01:54:24.865Z,4.3
2022-09-10T01:56:30.136Z,3.4
2022-09-10T01:58:24.424Z,3.1
2022-09-10T02:00:28.907Z,7.1
2022-09-10T02:02:26.217Z,5
2022-09-10T02:04:22.495Z,3.7
2022-09-10T02:08:22.338Z,3.9
2022-09-10T02:10:24.822Z,3.4
2022-09-10T02:12:20.599Z,4
2022-09-10T02:14:21.378Z,3.3
2022-09-10T02:16:28.291Z,5.8
2022-09-10T02:18:28.300Z,3.4
2022-09-10T02:20:23.335Z,3.2
2022-09-10T02:22:23.164Z,3.9
2022-09-10T02:24:26.619Z,3.4
2022-09-10T02:26:27.753Z,5.5
2022-09-10T02:28:27.774Z,4.5
2022-09-10T02:30:22.310Z,5
2022-09-10T02:32:29.838Z,3.8
2022-09-10T02:34:25.013Z,5.1
2022-09-10T02:36:20.019Z,5.2
2022-09-10T02:38:24.950Z,3.7
2022-09-10T02:40:20.737Z,3
2022-09-10T02:42:27.440Z,3.1
2022-09-10T02:44:20.896Z,2.6
2022-09-10T02:46:25.010Z,3
2022-09-10T02:48:27.198Z,3.8
2022-09-10T02:50:26.547Z,3.4
2022-09-10T02:52:25.494Z,3.9
2022-09-10T02:54:22.913Z,4.8
2022-09-10T02:56:27.220Z,4.6
2022-09-10T02:58:27.732Z,4
2022-09-10T03:00:29.359Z,3.5
2022-09-10T03:02:23.670Z,5
2022-09-10T03:04:26.604Z,2.3
2022-09-10T03:06:22.130Z,4.1
2022-09-10T03:08:20.870Z,3.3
2022-09-10T03:10:25.465Z,3.8
2022-09-10T03:12:28.105Z,4
2022-09-10T03:14:23.915Z,4.1
2022-09-10T03:16:29.210Z,4.4
2022-09-10T03:18:22.212Z,4.7
2022-09-10T03:20:24.357Z,2.9
2022-09-10T03:22:22.845Z,2.7
2022-09-10T03:24:22.836Z,5.4
2022-09-10T03:26:25.161Z,2.7
2022-09-10T03:28:24.576Z,4.1
2022-09-10T03:30:29.922Z,3.2
2022-09-10T03:32:25.477Z,4.1
2022-09-10T03:34:23.323Z,1.9
2022-09-10T03:36:32.520Z,6.1
2022-09-10T03:38:26.565Z,4.3
2022-09-10T03:40:26.123Z,3.7
2022-09-10T03:42:24.069Z,3.9
2022-09-10T03:44:25.110Z,4.1
2022-09-10T03:46:24.460Z,4.6
2022-09-10T03:48:23.874Z,2.8
2022-09-10T03:50:22.536Z,3.2
2022-09-10T03:52:26.710Z,3.8
2022-09-10T03:54:25.210Z,4.6
2022-09-10T03:56:22.121Z,4.2
2022-09-10T03:58:18.896Z,3.4
2022-09-10T04:00:25.039Z,3.3
2022-09-10T04:02:27.838Z,3.6
2022-09-10T04:04:23.771Z,3.4
2022-09-10T04:06:21.410Z,6.1
2022-09-10T04:08:23.127Z,3.8
2022-09-10T04:10:22.423Z,3.6
2022-09-10T04:12:30.490Z,5.7
2022-09-10T04:14:23.394Z,3.5
2022-09-10T04:16:28.964Z,4.4
2022-09-10T04:18:26.321Z,3.7
2022-09-10T04:20:28.587Z,3.9
2022-09-10T04:24:22.057Z,4.9
2022-09-10T04:26:25.770Z,3.2
2022-09-10T04:28:23.416Z,3.3
2022-09-10T04:30:24.743Z,5.9
2022-09-10T04:32:24.674Z,4
2022-09-10T04:34:23.200Z,3.1
2022-09-10T04:36:31.078Z,7.7
2022-09-10T04:38:25.368Z,4.6
2022-09-10T04:40:26.284Z,4.7
2022-09-10T04:42:25.230Z,4.2
2022-09-10T04:44:23.182Z,3.8
2022-09-10T04:46:25.005Z,4.8
2022-09-10T04:48:20.813Z,3
2022-09-10T04:50:27.142Z,4.3
2022-09-10T04:52:21.686Z,5.9
2022-09-10T04:54:24.285Z,4.5
2022-09-10T04:56:19.972Z,3.9
2022-09-10T04:58:25.828Z,6.1
2022-09-10T05:00:30.343Z,3.5
2022-09-10T05:02:19.728Z,4.2
2022-09-10T05:04:23.617Z,5.1
2022-09-10T05:06:25.253Z,6.4
2022-09-10T05:08:23.700Z,4.8
2022-09-10T05:10:27.774Z,4.4
2022-09-10T05:12:23.817Z,3.3
2022-09-10T05:14:23.716Z,5.6
2022-09-10T05:16:28.387Z,3.7
2022-09-10T05:18:24.720Z,5
2022-09-10T05:20:24.491Z,4
2022-09-10T05:22:34.923Z,5.6
2022-09-10T05:24:22.934Z,4.5
2022-09-10T05:26:28.183Z,4.4
2022-09-10T05:28:23.404Z,4.7
2022-09-10T05:30:23.348Z,4.4
2022-09-10T05:32:21.348Z,4.5
2022-09-10T05:34:26.313Z,4.2
2022-09-10T05:36:27.162Z,8.4
2022-09-10T05:38:27.190Z,3.8
2022-09-10T05:40:21.199Z,3.6
2022-09-10T05:42:29.115Z,3.8
2022-09-10T05:44:24.170Z,4.5
2022-09-10T05:48:26.466Z,4.2
2022-09-10T05:50:26.450Z,3.7
2022-09-10T05:52:27.894Z,4.1
2022-09-10T05:54:23.415Z,3.3
2022-09-10T05:56:25.361Z,4.6
2022-09-10T06:00:25.526Z,5.3
2022-09-10T06:02:29.595Z,4.6
2022-09-10T06:04:23.343Z,5.5
2022-09-10T06:06:27.427Z,4.6
2022-09-10T06:08:26.272Z,4.7
2022-09-10T06:10:28.248Z,6.9
2022-09-10T06:14:26.127Z,3.3
2022-09-10T06:16:24.777Z,4.2
2022-09-10T06:18:25.364Z,2.2
2022-09-10T06:20:25.275Z,5.4
2022-09-10T06:22:22.945Z,3
2022-09-10T06:24:24.038Z,3.3
2022-09-10T06:26:26.977Z,3.2
2022-09-10T06:28:24.309Z,3.9
2022-09-10T06:30:22.295Z,3.2
2022-09-10T06:32:27.939Z,2.9
2022-09-10T06:34:25.551Z,3.5
2022-09-10T06:36:24.980Z,4
2022-09-10T06:38:20.451Z,4.5
2022-09-10T06:40:25.442Z,1.8
2022-09-10T06:42:22.616Z,2
2022-09-10T06:44:21.830Z,1.9
2022-09-10T06:47:01.652Z,2
2022-09-10T06:49:31.270Z,4.3
2022-09-10T06:51:18.971Z,2.8
2022-09-10T06:53:00.378Z,2.6
2022-09-10T06:54:34.770Z,2.7
2022-09-10T06:56:26.778Z,2.2
2022-09-10T06:58:23.977Z,3.4
2022-09-10T07:00:24.429Z,4.3
2022-09-10T07:02:31.610Z,1.9
2022-09-10T07:04:22.308Z,3.7
2022-09-10T07:06:20.914Z,2.6
2022-09-10T07:08:23.848Z,4.1
2022-09-10T07:10:24.934Z,2.7
2022-09-10T07:12:30.419Z,2
2022-09-10T07:14:25.758Z,2.7
2022-09-10T07:16:24.666Z,2
2022-09-10T07:18:24.273Z,2.3
2022-09-10T07:20:24.882Z,2.2
2022-09-10T07:24:24.933Z,2.6
2022-09-10T07:26:20.218Z,5.1
2022-09-10T07:28:20.455Z,2.9
2022-09-10T07:30:26.700Z,2.1
2022-09-10T07:32:26.539Z,1.7
2022-09-10T07:34:23.231Z,2.2
2022-09-10T07:36:25.213Z,3.8
2022-09-10T07:38:25.907Z,4.4
2022-09-10T07:40:30.022Z,3.2
2022-09-10T07:42:27.716Z,3.9
2022-09-10T07:44:22.485Z,3.7
2022-09-10T07:46:30.479Z,3.3
2022-09-10T07:48:23.875Z,4.8
2022-09-10T07:50:27.174Z,3.3
2022-09-10T07:52:28.393Z,8.3
2022-09-10T07:54:24.259Z,3.7
2022-09-10T07:56:21.637Z,4.4
2022-09-10T08:00:23.500Z,5.1
2022-09-10T08:02:27.584Z,5.4
2022-09-10T08:06:25.920Z,4
2022-09-10T08:08:26.069Z,5.5
2022-09-10T08:10:25.445Z,4.7
2022-09-10T08:12:26.889Z,3.9
2022-09-10T08:14:25.705Z,3.5
2022-09-10T08:16:23.382Z,4.1
2022-09-10T08:18:19.337Z,3.7
2022-09-10T08:20:25.744Z,4.8
2022-09-10T08:22:31.109Z,4.2
2022-09-10T08:24:23.975Z,5.1
2022-09-10T08:26:28.013Z,5.6
2022-09-10T08:28:25.484Z,9.6
2022-09-10T08:30:21.281Z,4.1
2022-09-10T08:32:24.603Z,4.8
2022-09-10T08:34:26.728Z,7.6
2022-09-10T08:36:28.629Z,7.2
2022-09-10T08:38:26.219Z,6.6
2022-09-10T08:40:25.629Z,5.8
2022-09-10T08:42:28.115Z,5.5
2022-09-10T08:44:23.272Z,7.4
2022-09-10T08:46:24.877Z,9
2022-09-10T08:48:23.638Z,15.6
2022-09-10T08:50:25.166Z,7.8
2022-09-10T08:52:25.033Z,5.3
2022-09-10T08:54:24.001Z,7
2022-09-10T08:56:25.058Z,4.8
2022-09-10T08:58:23.794Z,6.8
2022-09-10T09:00:24.349Z,5
2022-09-10T09:02:52.379Z,6.5
2022-09-10T09:04:34.589Z,7.6
2022-09-10T09:06:24.869Z,6.7
2022-09-10T09:08:21.273Z,7.9
2022-09-10T09:10:29.777Z,5.1
2022-09-10T09:12:28.899Z,7.9
2022-09-10T09:14:22.579Z,4.6
2022-09-10T09:16:25.621Z,5.6
2022-09-10T09:18:26.061Z,5.3
2022-09-10T09:22:25.157Z,4.2
2022-09-10T09:24:23.449Z,5.3
2022-09-10T09:26:21.062Z,6
2022-09-10T09:28:26.395Z,6.6
2022-09-10T09:30:24.612Z,7.6
2022-09-10T09:32:29.211Z,5.4
2022-09-10T09:34:27.896Z,5.3
2022-09-10T09:36:29.227Z,5.4
2022-09-10T09:38:22.766Z,6.3
2022-09-10T09:40:26.053Z,6
2022-09-10T09:42:28.401Z,4.8
2022-09-10T09:44:19.718Z,6
2022-09-10T09:46:27.251Z,5.2
2022-09-10T09:48:23.427Z,7.8
2022-09-10T09:50:24.736Z,6.2
2022-09-10T09:52:26.540Z,5.6
2022-09-10T09:54:56.785Z,5.4
2022-09-10T09:56:59.097Z,5.9
2022-09-10T09:58:45.917Z,8
2022-09-10T10:00:25.777Z,4.9
2022-09-10T10:02:28.403Z,7.1
2022-09-10T10:04:23.770Z,6.5
2022-09-10T10:06:28.861Z,7.1
2022-09-10T10:08:25.889Z,6.7
2022-09-10T10:10:29.047Z,9.2
2022-09-10T10:12:26.619Z,7.7
2022-09-10T10:14:25.751Z,8.4
2022-09-10T10:16:27.052Z,5.7
2022-09-10T10:18:27.122Z,6.8
2022-09-10T10:20:22.335Z,5.3
2022-09-10T10:22:27.886Z,6.8
2022-09-10T10:24:25.349Z,5.3
2022-09-10T10:26:27.810Z,6.6
2022-09-10T10:28:20.605Z,8.7
2022-09-10T10:30:24.319Z,7.8
2022-09-10T10:32:29.587Z,6.5
2022-09-10T10:34:24.931Z,5.7
2022-09-10T10:36:27.000Z,5
2022-09-10T10:38:27.988Z,9.5
2022-09-10T10:40:27.116Z,5.6
2022-09-10T10:42:25.985Z,7.7
2022-09-10T10:44:23.349Z,5.6
2022-09-10T10:46:26.206Z,10.3
2022-09-10T10:48:31.281Z,6.8
2022-09-10T10:52:25.609Z,6.4
2022-09-10T10:54:20.488Z,7.6
2022-09-10T10:56:22.241Z,6.6
2022-09-10T10:58:27.173Z,6.4
2022-09-10T11:00:24.732Z,8.4
2022-09-10T11:02:26.179Z,11.9
2022-09-10T11:04:24.614Z,7.8
2022-09-10T11:06:29.684Z,8.3
2022-09-10T11:08:23.925Z,5.7
2022-09-10T11:10:25.206Z,7.9
2022-09-10T11:12:28.477Z,5.8
2022-09-10T11:14:21.108Z,7.9
2022-09-10T11:16:26.355Z,6.3
2022-09-10T11:18:26.006Z,6.1
2022-09-10T11:20:37.309Z,5.8
2022-09-10T11:22:31.112Z,6.3
2022-09-10T11:24:27.869Z,7.6
2022-09-10T11:26:24.884Z,6.5
2022-09-10T11:28:25.237Z,8.2
2022-09-10T11:30:25.458Z,5.3
2022-09-10T11:32:26.771Z,6.7
2022-09-10T11:34:26.497Z,10
2022-09-10T11:36:28.102Z,8.4
2022-09-10T11:38:24.150Z,8.9
2022-09-10T11:40:28.342Z,10
2022-09-10T11:42:26.758Z,6
2022-09-10T11:44:23.920Z,8.3
2022-09-10T11:46:28.783Z,6.2
2022-09-10T11:48:24.574Z,6.4
2022-09-10T11:50:26.253Z,5.7
2022-09-10T11:52:26.322Z,6.6
2022-09-10T11:54:20.678Z,5.7
2022-09-10T11:56:28.570Z,6
2022-09-10T11:58:27.051Z,4.5
2022-09-10T12:00:26.996Z,5.5
2022-09-10T12:02:26.623Z,5.6
2022-09-10T12:04:23.594Z,5.8
2022-09-10T12:06:27.511Z,8.2
2022-09-10T12:08:24.992Z,8.5
2022-09-10T12:10:21.551Z,5.3
2022-09-10T12:12:27.867Z,7.8
2022-09-10T12:14:28.127Z,5.9
2022-09-10T12:16:28.298Z,5.8
2022-09-10T12:18:23.504Z,8.8
2022-09-10T12:20:26.173Z,6.1
2022-09-10T12:22:20.744Z,6.6
2022-09-10T12:24:25.156Z,6
2022-09-10T12:26:28.028Z,9.4
2022-09-10T12:28:22.619Z,5.5
2022-09-10T12:30:19.962Z,8.8
2022-09-10T12:32:27.709Z,8
2022-09-10T12:34:26.417Z,6
2022-09-10T12:36:29.395Z,8.5
2022-09-10T12:38:24.152Z,5.3
2022-09-10T12:40:22.243Z,7.7
2022-09-10T12:42:25.111Z,5.8
2022-09-10T12:44:23.889Z,8.9
2022-09-10T12:48:26.958Z,9.4
2022-09-10T12:50:26.311Z,8.9
2022-09-10T12:52:26.402Z,9.4
2022-09-10T12:54:21.831Z,7.6
2022-09-10T12:56:29.185Z,7.8
2022-09-10T12:58:28.287Z,7.4
2022-09-10T13:00:25.460Z,8.1
2022-09-10T13:02:28.004Z,7.1
2022-09-10T13:04:25.972Z,7.6
2022-09-10T13:06:26.557Z,8.2
2022-09-10T13:08:25.051Z,8.3
2022-09-10T13:10:27.605Z,6.5
2022-09-10T13:12:28.207Z,10.3
2022-09-10T13:14:24.025Z,8.2
2022-09-10T13:16:21.905Z,12.5
2022-09-10T13:18:25.963Z,10.4
2022-09-10T13:20:27.931Z,11.2
2022-09-10T13:24:25.587Z,16.5
2022-09-10T13:26:25.819Z,11.2
2022-09-10T13:28:25.345Z,9.1
2022-09-10T13:30:28.609Z,10.1
2022-09-10T13:32:27.670Z,9.7
2022-09-10T13:34:23.436Z,11.6
2022-09-10T13:36:27.773Z,8.9
2022-09-10T13:38:23.920Z,9.3
2022-09-10T13:40:26.797Z,7.8
2022-09-10T13:42:26.876Z,11.5
2022-09-10T13:44:22.756Z,9.7
2022-09-10T13:46:29.048Z,7.7
2022-09-10T13:48:26.781Z,8.8
2022-09-10T13:50:28.254Z,11.4
2022-09-10T13:52:26.317Z,12.6
2022-09-10T13:54:25.760Z,13.2
2022-09-10T13:56:25.136Z,11.6
2022-09-10T13:58:22.970Z,11.2
2022-09-10T14:00:26.784Z,9
2022-09-10T14:02:29.704Z,9.3
2022-09-10T14:04:26.347Z,9.7
2022-09-10T14:06:28.513Z,8.2
2022-09-10T14:08:25.645Z,8.9
2022-09-10T14:10:28.193Z,9.4
2022-09-10T14:12:28.189Z,8.9
2022-09-10T14:14:20.436Z,8
2022-09-10T14:16:30.233Z,9.2
2022-09-10T14:18:26.151Z,10.7
2022-09-10T14:22:26.116Z,7.9
2022-09-10T14:24:26.475Z,8.1
2022-09-10T14:26:20.145Z,6.7
2022-09-10T14:28:20.986Z,6.9
2022-09-10T14:30:27.200Z,7.4
2022-09-10T14:32:26.843Z,7.7
2022-09-10T14:34:24.170Z,8
2022-09-10T14:36:25.387Z,9.2
2022-09-10T14:38:27.148Z,8.3
2022-09-10T14:40:25.520Z,10.4
2022-09-10T14:42:27.291Z,7.2
2022-09-10T14:44:22.896Z,7.1
2022-09-10T14:46:28.279Z,8
2022-09-10T14:48:25.571Z,9.7
2022-09-10T14:50:26.215Z,8.5
2022-09-10T14:52:28.462Z,8.2
2022-09-10T14:54:20.868Z,8.7
2022-09-10T14:56:26.928Z,7.8
2022-09-10T14:58:24.173Z,8.3
2022-09-10T15:00:27.352Z,6.9
2022-09-10T15:02:22.778Z,10.9
2022-09-10T15:04:26.139Z,7.2
2022-09-10T15:06:26.374Z,7
2022-09-10T15:08:25.874Z,6.9
2022-09-10T15:10:25.366Z,7.2
2022-09-10T15:12:28.803Z,6.8
2022-09-10T15:14:25.194Z,8.4
2022-09-10T15:16:24.469Z,11.8
2022-09-10T15:18:29.387Z,12.4
2022-09-10T15:20:27.814Z,6.8
2022-09-10T15:22:34.478Z,6.2
2022-09-10T15:24:26.615Z,11.6
2022-09-10T15:26:30.525Z,7.6
2022-09-10T15:28:20.348Z,6.8
2022-09-10T15:30:23.590Z,7.1
2022-09-10T15:32:25.388Z,8
2022-09-10T15:36:23.607Z,7.4
2022-09-10T15:38:20.794Z,6.7
2022-09-10T15:40:26.595Z,7.9
2022-09-10T15:42:27.012Z,5.8
2022-09-10T15:44:23.634Z,7.6
2022-09-10T15:46:21.023Z,7
2022-09-10T15:48:24.093Z,9.8
2022-09-10T15:50:24.124Z,5.4
2022-09-10T15:52:24.791Z,6.4
2022-09-10T15:54:21.924Z,6
2022-09-10T15:56:24.615Z,7.1
2022-09-10T15:58:24.366Z,6.9
2022-09-10T16:00:29.813Z,6.7
2022-09-10T16:02:26.625Z,7.6
2022-09-10T16:04:23.422Z,8.4
2022-09-10T16:06:26.347Z,6.8
2022-09-10T16:10:22.188Z,6.7
2022-09-10T16:12:24.698Z,6.9
2022-09-10T16:14:24.142Z,5.8
2022-09-10T16:16:28.707Z,6.6
2022-09-10T16:18:23.699Z,6.4
2022-09-10T16:20:21.982Z,7.8
2022-09-10T16:22:26.184Z,10.3
2022-09-10T16:24:20.664Z,8.3
2022-09-10T16:26:25.879Z,7.9
2022-09-10T16:28:20.052Z,8.9
2022-09-10T16:30:25.053Z,13
2022-09-10T16:32:29.212Z,6.9
2022-09-10T16:36:22.024Z,7.2
2022-09-10T16:38:28.104Z,8.6
2022-09-10T16:40:27.651Z,9.1
2022-09-10T16:42:26.857Z,6.9
2022-09-10T16:44:24.917Z,7.4
2022-09-10T16:46:23.886Z,7.2
2022-09-10T16:48:23.301Z,6.7
2022-09-10T16:50:28.589Z,8.7
2022-09-10T16:52:31.383Z,8.6
2022-09-10T16:54:24.911Z,7.3
2022-09-10T16:56:28.361Z,6.2
2022-09-10T16:58:27.129Z,7.4
2022-09-10T17:00:27.545Z,8.3
2022-09-10T17:02:25.851Z,6.2
2022-09-10T17:04:29.351Z,9.8
2022-09-10T17:06:24.937Z,6.6
2022-09-10T17:08:24.496Z,8.8
2022-09-10T17:10:28.107Z,5.8
2022-09-10T17:12:23.607Z,7.4
2022-09-10T17:14:23.513Z,5.9
2022-09-10T17:16:27.075Z,6.8
2022-09-10T17:18:24.741Z,7
2022-09-10T17:20:25.106Z,6.6
2022-09-10T17:22:28.098Z,4.9
2022-09-10T17:24:25.763Z,6.3
2022-09-10T17:26:21.031Z,7.1
2022-09-10T17:28:20.716Z,6.3
2022-09-10T17:30:26.088Z,5.3
2022-09-10T17:32:30.104Z,8.9
2022-09-10T17:34:23.222Z,7.2
2022-09-10T17:36:27.255Z,7.3
2022-09-10T17:38:23.675Z,7.1
2022-09-10T17:40:27.385Z,7.2
2022-09-10T17:42:29.787Z,6.8
2022-09-10T17:44:27.902Z,7.6
2022-09-10T17:46:25.371Z,8.5
2022-09-10T17:48:27.990Z,7.8
2022-09-10T17:50:27.334Z,5.8
2022-09-10T17:52:35.364Z,9.4
2022-09-10T17:54:26.224Z,9.5
2022-09-10T17:56:28.616Z,9.6
2022-09-10T17:58:21.202Z,8.2
2022-09-10T18:00:28.734Z,7.5
2022-09-10T18:02:34.398Z,7.4
2022-09-10T18:04:20.230Z,6.5
2022-09-10T18:06:33.271Z,9.2
2022-09-10T18:08:26.158Z,8.6
2022-09-10T18:10:25.459Z,8.9
2022-09-10T18:12:24.845Z,7.8
2022-09-10T18:14:23.509Z,8.5
2022-09-10T18:16:28.947Z,8.6
2022-09-10T18:18:29.008Z,7
2022-09-10T18:20:22.503Z,7.1
2022-09-10T18:22:27.739Z,7.2
2022-09-10T18:24:26.005Z,8.2
2022-09-10T18:26:28.378Z,6.8
2022-09-10T18:28:33.837Z,10.7
2022-09-10T18:30:25.574Z,8.2
2022-09-10T18:32:26.299Z,6.1
2022-09-10T18:34:23.308Z,7.5
2022-09-10T18:36:24.037Z,7.2
2022-09-10T18:38:27.297Z,12.2
2022-09-10T18:40:27.812Z,8.3
2022-09-10T18:42:25.845Z,9.7
2022-09-10T18:44:24.528Z,8.4
2022-09-10T18:46:29.531Z,7.6
2022-09-10T18:48:35.321Z,11
2022-09-10T18:50:27.896Z,8.9
2022-09-10T18:52:25.165Z,7.6
2022-09-10T18:54:23.198Z,10.6
2022-09-10T18:56:28.629Z,8.3
2022-09-10T18:58:22.971Z,8.4
2022-09-10T19:00:29.449Z,7
2022-09-10T19:02:23.761Z,8.2
2022-09-10T19:04:26.018Z,7.3
2022-09-10T19:06:25.193Z,8.6
2022-09-10T19:08:27.079Z,7.8
2022-09-10T19:10:27.506Z,8.4
2022-09-10T19:12:27.926Z,7.3
2022-09-10T19:14:20.807Z,7
2022-09-10T19:16:24.377Z,7.5
2022-09-10T19:18:21.626Z,9.9
2022-09-10T19:20:27.655Z,6.5
2022-09-10T19:22:32.749Z,8.7
2022-09-10T19:24:55.309Z,7
2022-09-10T19:26:24.373Z,6.5
2022-09-10T19:28:27.093Z,6.8
2022-09-10T19:30:24.167Z,7
2022-09-10T19:32:23.796Z,6.3
2022-09-10T19:34:23.279Z,7.6
2022-09-10T19:36:23.936Z,11.5
2022-09-10T19:38:40.971Z,8.5
2022-09-10T19:40:24.804Z,8
2022-09-10T19:42:28.862Z,8.2
2022-09-10T19:44:24.404Z,7.8
2022-09-10T19:46:25.881Z,8.1
2022-09-10T19:48:23.531Z,7.7
2022-09-10T19:50:28.186Z,10.3
2022-09-10T19:52:28.315Z,9
2022-09-10T19:54:21.571Z,8.2
2022-09-10T19:56:26.202Z,9.2
2022-09-10T19:58:26.058Z,8.7
2022-09-10T20:00:50.947Z,10.9
2022-09-10T20:02:28.580Z,9.3
2022-09-10T20:04:23.089Z,9.9
2022-09-10T20:06:26.540Z,9.2
2022-09-10T20:08:26.298Z,9
2022-09-10T20:10:20.057Z,10
2022-09-10T20:12:24.505Z,9.3
2022-09-10T20:14:25.258Z,10.6
2022-09-10T20:16:28.829Z,8
2022-09-10T20:18:23.644Z,9.1
2022-09-10T20:20:30.014Z,9
2022-09-10T20:22:28.389Z,10.1
2022-09-10T20:24:23.045Z,9.3
2022-09-10T20:26:26.811Z,8.2
2022-09-10T20:28:23.888Z,10.7
2022-09-10T20:30:29.139Z,8.2
2022-09-10T20:32:28.662Z,8.9
2022-09-10T20:34:24.965Z,8.4
2022-09-10T20:36:24.696Z,7.2
2022-09-10T20:38:23.249Z,8.3
2022-09-10T20:40:19.672Z,7.7
2022-09-10T20:42:27.126Z,9.1
2022-09-10T20:44:25.913Z,9.8
2022-09-10T20:46:25.843Z,8
2022-09-10T20:48:21.779Z,9.2
2022-09-10T20:50:25.964Z,10.2
2022-09-10T20:52:28.345Z,9.3
2022-09-10T20:54:22.075Z,8.4
2022-09-10T20:56:25.514Z,8.9
2022-09-10T20:58:23.003Z,8.8
2022-09-10T21:00:24.263Z,7.9
2022-09-10T21:02:20.208Z,7.6
2022-09-10T21:04:25.514Z,8.1
2022-09-10T21:06:24.928Z,10.5
2022-09-10T21:08:26.218Z,6.7
2022-09-10T21:10:26.176Z,9.1
2022-09-10T21:12:20.406Z,8.3
2022-09-10T21:14:23.223Z,7.2
2022-09-10T21:16:25.170Z,8.9
2022-09-10T21:18:23.596Z,8.6
2022-09-10T21:20:25.368Z,10.4
2022-09-10T21:22:24.611Z,10.7
2022-09-10T21:24:23.370Z,9.2
2022-09-10T21:26:27.619Z,8
2022-09-10T21:28:23.451Z,9.4
2022-09-10T21:30:29.257Z,9.1
2022-09-10T21:32:25.025Z,8.4
2022-09-10T21:34:25.352Z,7.6
2022-09-10T21:36:22.241Z,8.3
2022-09-10T21:38:22.461Z,7.6
2022-09-10T21:40:26.715Z,10.7
2022-09-10T21:42:23.995Z,10.6
2022-09-10T21:44:23.921Z,8.3
2022-09-10T21:46:29.914Z,9.3
2022-09-10T21:48:20.591Z,9.4
2022-09-10T21:50:28.406Z,9.8
2022-09-10T21:52:26.336Z,9.1
2022-09-10T21:54:25.503Z,11
2022-09-10T21:56:26.394Z,9.2
2022-09-10T21:58:25.648Z,9.6
2022-09-10T22:00:27.163Z,8.6
2022-09-10T22:02:30.197Z,10.2
2022-09-10T22:04:27.312Z,13.5
2022-09-10T22:06:23.394Z,11.3
2022-09-10T22:08:24.593Z,8.9
2022-09-10T22:10:26.196Z,9.9
2022-09-10T22:12:25.764Z,11.2
2022-09-10T22:14:24.760Z,9.4
2022-09-10T22:16:24.838Z,11.5
2022-09-10T22:18:26.783Z,10.8
2022-09-10T22:20:26.339Z,12.4
2022-09-10T22:22:28.671Z,11.7
2022-09-10T22:24:21.994Z,13.2
2022-09-10T22:26:27.219Z,11.6
2022-09-10T22:28:26.229Z,9.6
2022-09-10T22:30:28.125Z,10.6
2022-09-10T22:32:28.746Z,9.9
2022-09-10T22:34:23.434Z,12.2
2022-09-10T22:36:27.566Z,12
2022-09-10T22:38:25.709Z,12.6
2022-09-10T22:40:29.944Z,13.9
2022-09-10T22:42:22.500Z,11.5
2022-09-10T22:44:26.378Z,11
2022-09-10T22:46:23.711Z,12.2
2022-09-10T22:48:26.187Z,12.3
2022-09-10T22:50:26.842Z,10.7
2022-09-10T22:52:28.624Z,12.8
2022-09-10T22:54:25.526Z,11.1
2022-09-10T22:56:24.223Z,11.7
2022-09-10T22:58:28.756Z,13.9
2022-09-10T23:00:24.526Z,11.4
2022-09-10T23:02:24.695Z,10.4
2022-09-10T23:04:24.284Z,12.4
2022-09-10T23:06:27.493Z,13.8
2022-09-10T23:08:19.644Z,12.2
2022-09-10T23:10:25.738Z,13
2022-09-10T23:14:23.508Z,11.9
2022-09-10T23:16:24.770Z,12.1
2022-09-10T23:18:26.030Z,12.8
2022-09-10T23:20:25.561Z,12
2022-09-10T23:22:30.209Z,10.3
2022-09-10T23:24:22.739Z,16.1
2022-09-10T23:26:28.119Z,15.6
2022-09-10T23:28:22.919Z,12
2022-09-10T23:30:25.897Z,13
2022-09-10T23:32:28.618Z,14.1
2022-09-10T23:34:23.248Z,18.4
2022-09-10T23:36:28.315Z,13
2022-09-10T23:38:25.745Z,14.3
2022-09-10T23:40:35.848Z,13.9
2022-09-10T23:42:25.889Z,15
2022-09-10T23:44:26.919Z,13.3
2022-09-10T23:46:28.382Z,15.7
2022-09-10T23:48:25.863Z,15.3
2022-09-10T23:50:25.918Z,14.9
2022-09-10T23:52:28.933Z,14.5
2022-09-10T23:54:26.702Z,14
2022-09-10T23:56:23.822Z,15.4
2022-09-10T23:58:25.918Z,14.3
